Flight Track Log - Related Links

Times and Time Zones

All times are in EDT time to prevent confusion due to time zone crossing. See the N960DL flight status page for this flight to view local times or setup timezone preferences in your user account.

Time Position Orientation Groundspeed Altitude Reporting Facility
EDT Latitude Longitude Course Direction KTS MPH feet Rate Location/Type
Mon 11:33:53 AM 33.6478 -84.3733 246° West 443 510 2,600  Level Atlanta Center
Mon 11:34:53 AM 33.6792 -84.2983 63° Northeast 290 334 5,100 2,496 Climbing Atlanta Center
Mon 11:35:46 AM 33.7500 -84.2833 10° North 284 327 7,300 2,521 Climbing Atlanta TRACON
Mon 11:36:00 AM 33.8001 -84.4862 270° West  Level FlightAware Approximate
Mon 11:36:52 AM 33.8167 -84.3167 337° Northwest 297 342 10,100  Level Atlanta TRACON
Mon 11:37:00 AM 33.7762 -84.6117 234° Southwest  Level FlightAware Approximate
Mon 11:38:00 AM 33.7100 -84.7192 234° Southwest  Level FlightAware Approximate
Mon 11:38:53 AM 33.8100 -84.5289 268° West 325 374 14,000  Level Atlanta Center
Mon 11:39:00 AM 33.6458 -84.8280 246° West  Level FlightAware Approximate
Mon 11:39:53 AM 33.7803 -84.6386 252° West 346 398 15,700  Level Atlanta Center
Mon 11:40:53 AM 33.7108 -84.7406 231° Southwest 359 413 17,100 1,400 Climbing Atlanta Center
Mon 11:41:53 AM 33.6369 -84.8697 236° Southwest 403 464 18,500 1,650 Climbing Atlanta Center
Mon 11:42:53 AM 33.5922 -84.9964 247° West 416 479 20,400 1,900 Climbing Atlanta Center
Mon 11:43:53 AM 33.5494 -85.1256 248° West 424 488 22,300 1,900 Climbing Atlanta Center
Mon 11:44:53 AM 33.5086 -85.2597 250° West 424 488 24,200 2,050 Climbing Atlanta Center
Mon 11:45:53 AM 33.4861 -85.3939 259° West 419 482 26,400 1,700 Climbing Atlanta Center
Mon 11:46:53 AM 33.4639 -85.5278 259° West 414 476 27,600 1,600 Climbing Atlanta Center
Mon 11:47:53 AM 33.4456 -85.6619 261° West 414 476 29,600 1,700 Climbing Atlanta Center
Mon 11:48:53 AM 33.4208 -85.7908 257° West 397 457 31,000 1,100 Climbing Atlanta Center
Mon 11:49:53 AM 33.4044 -85.9000 260° West 390 449 31,800 650 Climbing Atlanta Center
Mon 11:50:53 AM 33.3836 -86.0317 259° West 390 449 32,300 600 Climbing Atlanta Center
Mon 11:51:53 AM 33.3628 -86.1581 259° West 390 449 33,000 650 Climbing Atlanta Center
Mon 11:52:53 AM 33.3417 -86.2842 259° West 390 449 33,600 500 Climbing Atlanta Center
Mon 11:53:53 AM 33.3228 -86.4031 259° West 397 457 34,000 200 Climbing Atlanta Center
Mon 11:54:53 AM 33.2989 -86.5564 259° West 391 450 34,000  Level Atlanta Center
Mon 11:55:53 AM 33.2775 -86.6825 259° West 391 450 34,000  Level Atlanta Center
Mon 11:56:53 AM 33.2581 -86.8086 260° West 398 458 34,000  Level Atlanta Center
Mon 11:57:53 AM 33.2364 -86.9347 258° West 392 451 34,000  Level Atlanta Center
Mon 11:58:53 AM 33.1853 -87.0569 243° Southwest 389 448 34,000  Level Atlanta Center
Mon 11:59:53 AM 33.1347 -87.1594 240° Southwest 395 455 34,000  Level Atlanta Center
Mon 12:00:53 PM 33.0839 -87.2717 242° Southwest 400 460 34,000  Level Atlanta Center
Mon 12:01:53 PM 33.0261 -87.4008 242° Southwest 400 460 34,000  Level Atlanta Center
Mon 12:05:46 PM 32.8261 -87.8456 242° Southwest 405 466 34,000  Level Memphis Center
Mon 12:06:46 PM 32.7761 -87.9631 243° Southwest 405 466 34,000  Level Memphis Center
Mon 12:07:45 PM 32.7242 -88.0781 242° Southwest 405 466 34,000  Level Memphis Center
Mon 12:08:46 PM 32.6678 -88.1956 240° Southwest 405 466 34,000  Level Memphis Center
Mon 12:09:46 PM 32.6175 -88.3103 243° Southwest 405 466 34,000  Level Memphis Center
Mon 12:10:46 PM 32.5631 -88.4272 241° Southwest 411 473 34,000  Level Memphis Center
Mon 12:11:46 PM 32.5125 -88.5467 243° Southwest 411 473 34,000  Level Memphis Center
Mon 12:12:46 PM 32.4744 -88.6656 249° West 405 466 34,000  Level Memphis Center
Mon 12:13:46 PM 32.4322 -88.7869 248° West 400 460 34,000  Level Memphis Center
Mon 12:14:46 PM 32.3942 -88.9081 250° West 400 460 34,000  Level Memphis Center
Mon 12:15:46 PM 32.3578 -89.0292 250° West 395 455 34,000  Level Memphis Center
Mon 12:16:46 PM 32.3217 -89.1478 250° West 390 449 34,000  Level Memphis Center
Mon 12:17:46 PM 32.2831 -89.2664 249° West 390 449 34,000  Level Memphis Center
Mon 12:18:46 PM 32.2464 -89.3869 250° West 390 449 34,000  Level Memphis Center
Mon 12:19:46 PM 32.2097 -89.5078 250° West 390 449 34,000  Level Memphis Center
Mon 12:20:46 PM 32.1728 -89.6236 249° West 390 449 34,000  Level Memphis Center
Mon 12:21:46 PM 32.1358 -89.7464 250° West 390 449 34,000  Level Memphis Center
Mon 12:22:46 PM 32.1011 -89.8644 251° West 390 449 34,000  Level Memphis Center
Mon 12:23:46 PM 32.0639 -89.9797 249° West 390 449 34,000  Level Memphis Center
Mon 12:24:46 PM 32.0286 -90.0975 251° West 390 449 34,000  Level Memphis Center
Mon 12:25:46 PM 31.9892 -90.2153 248° West 390 449 34,000  Level Memphis Center
Mon 12:26:46 PM 31.9558 -90.3328 252° West 390 449 34,000  Level Memphis Center
Mon 12:29:18 PM 31.8594 -90.6364 250° West 382 440 34,000  Level Houston Center
Mon 12:30:20 PM 31.8233 -90.7536 250° West 384 442 34,000  Level Houston Center
Mon 12:31:23 PM 31.7861 -90.8694 249° West 383 441 34,000  Level Houston Center
Mon 12:32:25 PM 31.7492 -90.9867 250° West 384 442 34,000  Level Houston Center
Mon 12:33:27 PM 31.7089 -91.1128 249° West 384 442 34,000  Level Houston Center
Mon 12:34:29 PM 31.6722 -91.2294 250° West 382 440 34,000  Level Houston Center
Mon 12:35:31 PM 31.6350 -91.3456 249° West 381 438 34,000  Level Houston Center
Mon 12:36:33 PM 31.5908 -91.4867 250° West 384 442 34,000  Level Houston Center
Mon 12:37:35 PM 31.5525 -91.6036 249° West 384 442 34,000  Level Houston Center
Mon 12:38:37 PM 31.5164 -91.7217 250° West 384 442 34,000  Level Houston Center
Mon 12:39:39 PM 31.4775 -91.8406 249° West 388 447 34,000  Level Houston Center
Mon 12:40:42 PM 31.4406 -91.9589 250° West 388 447 34,000  Level Houston Center
Mon 12:41:44 PM 31.3972 -92.0853 248° West 389 448 34,000  Level Houston Center
Mon 12:42:46 PM 31.3578 -92.2044 249° West 392 451 34,000  Level Houston Center
Mon 12:43:48 PM 31.3181 -92.3228 249° West 393 452 34,000  Level Houston Center
Mon 12:44:50 PM 31.2689 -92.4658 248° West 397 457 34,000  Level Houston Center
Mon 12:45:52 PM 31.2167 -92.5817 242° Southwest 403 464 34,000  Level Houston Center
Mon 12:46:54 PM 31.1533 -92.6903 236° Southwest 406 467 34,000  Level Houston Center
Mon 12:47:56 PM 31.0897 -92.8000 236° Southwest 405 466 34,000  Level Houston Center
Mon 12:48:59 PM 31.0306 -92.9050 237° Southwest 398 458 34,000  Level Houston Center
Mon 12:50:01 PM 30.9697 -93.0136 237° Southwest 400 460 34,000  Level Houston Center
Mon 12:51:03 PM 30.8972 -93.1456 237° Southwest 405 466 34,000  Level Houston Center
Mon 12:52:05 PM 30.8361 -93.2544 237° Southwest 404 465 34,000  Level Houston Center
Mon 12:53:07 PM 30.7753 -93.3633 237° Southwest 404 465 34,000 -629 Level Houston Center
Mon 12:54:09 PM 30.7142 -93.4706 236° Southwest 402 463 32,700 -2,226 Descending Houston Center
Mon 12:55:11 PM 30.6522 -93.5792 236° Southwest 406 467 29,400 -3,387 Descending Houston Center
Mon 12:56:13 PM 30.5736 -93.7158 236° Southwest 429 494 25,700 -2,855 Descending Houston Center
Mon 12:57:15 PM 30.5106 -93.8267 237° Southwest 420 483 23,500 -2,064 Descending Houston Center
Mon 12:58:18 PM 30.4492 -93.9325 236° Southwest 402 463 21,400 -2,160 Descending Houston Center
Mon 12:59:20 PM 30.3903 -94.0336 236° Southwest 383 441 19,000 -2,505 Descending Houston Center
Mon 01:00:01 PM 30.3419 -94.1178 236° Southwest 371 427 17,100 -2,516 Descending Houston Center
Mon 01:00:22 PM 30.3217 -94.1533 237° Southwest 374 430 16,400 -2,262 Descending Houston Center
Mon 01:01:02 PM 30.2828 -94.2203 236° Southwest 359 413 14,800 -2,129 Descending Houston Center
Mon 01:01:24 PM 30.2667 -94.2475 236° Southwest 357 411 14,200 -2,226 Descending Houston Center
Mon 01:02:04 PM 30.2306 -94.3094 236° Southwest 352 405 12,500 -2,129 Descending Houston Center
Mon 01:02:26 PM 30.2122 -94.3403 235° Southwest 351 404 12,000 -1,574 Descending Houston Center
Mon 01:03:05 PM 30.1864 -94.4144 248° West 321 369 10,900 -1,452 Descending Houston Center
Mon 01:03:28 PM 30.1833 -94.4386 262° West 324 373 10,500 -885 Descending Houston Center
Mon 01:04:06 PM 30.1706 -94.5108 258° West 297 342 10,000 -871 Descending Houston Center
Mon 01:04:30 PM 30.1686 -94.5297 263° West 300 345 9,600 -1,548 Descending Houston Center
Mon 01:05:08 PM 30.1564 -94.6022 259° West 281 323 8,400 -1,839 Descending Houston Center
Mon 01:05:32 PM 30.1522 -94.6361 262° West 285 328 7,700 -1,672 Descending Houston Center
Mon 01:06:09 PM 30.1422 -94.6933 259° West 282 325 6,700 -1,355 Descending Houston Center
Mon 01:06:34 PM 30.1375 -94.7244 260° West 282 325 6,300 -689 Descending Houston Center
Mon 01:07:10 PM 30.1253 -94.7800 256° West 275 316 6,000 -286 Descending Houston Center
Mon 01:07:37 PM 30.1222 -94.8106 263° West 278 320 6,000  Level Houston Center
Mon 01:08:12 PM 30.1106 -94.8689 257° West 274 315 6,000  Level Houston Center
Mon 01:08:39 PM 30.1069 -94.8964 261° West 275 316 6,000  Level Houston Center
Mon 01:09:12 PM 30.1044 -94.9592 267° West 276 318 6,000  Level Houston Center
Mon 01:09:41 PM 30.1064 -94.9844 275° West 277 319 6,000  Level Houston Center
Mon 01:10:14 PM 30.1044 -95.0486 268° West 274 315 6,000  Level Houston Center
Mon 01:10:43 PM 30.1056 -95.0892 272° West 275 316 6,000  Level Houston Center
Mon 01:11:15 PM 30.1044 -95.1378 268° West 275 316 6,000  Level Houston Center
Mon 01:11:45 PM 30.1058 -95.1769 272° West 276 318 6,000  Level Houston Center
Mon 01:12:47 PM 30.1064 -95.2633 270° West 273 314 6,000  Level Houston Center
Mon 01:13:23 PM 30.1047 -95.3239 268° West 264 304 6,000  Level Houston Center
Mon 01:13:49 PM 30.1067 -95.3475 275° West 268 308 6,000 -197 Level Houston Center
Mon 01:14:24 PM 30.1053 -95.3986 268° West 197 227 5,800 -677 Descending Houston Center
Mon 01:14:51 PM 30.1069 -95.4153 277° West 223 257 5,300 -2,036 Descending Houston Center
Mon 01:15:20 PM 30.1044 -95.4567 266° West 202 232 3,900 -2,190 Descending Houston Center
Mon 01:15:54 PM 30.0958 -95.4894 253° West 208 239 3,000 -1,588 Descending Houston Center

Login

Don't have an account? Register now (free) for customized features, flight alerts, and more!